»·PEaware :: N1928F KHND-KHND

N1928F :: KHND-KHND

FLIGHT INFORMATION

Flight Status: Arrived
Operator: Privately registered:
United States
More flights under this callsign
Pilot: Thomas M. (17531)
Aircraft: CESSNA 172 SKYHAWK
(C172)
More flights by this aircraft type
Origin: KHND Henderson
United States
Destination: KHND Henderson
United States
More flights between these airports :: More routes between these airports
Route: +
File this flight plan on PilotEdge
Remarks:
Altitude:
(Current/Filed)
0ft
Speed:
(Current/Filed)
0kts
Departed: 09-Oct-18 03:51 PM
Arrived: 09-Oct-18 04:46 PM
Distance/Time
Traveled:
0nm/0:55
Distance/Time
To Go:
Arrived

Flight Plot

Page will automatically refresh every two minutes.


Map Options




Map Legend


Flown Route
Filed Route
Departure Airport
Arrival Airport
Navaid (VOR, NDB)
Fix

Horizontal Profiles

Position Reports

Time Latitude Longitude Heading Altitude Ground
Speed
09-Oct-18 15:46 35.975819 -115.137522 0 2496ft 0kts
09-Oct-18 15:47 35.976309 -115.138375 333 2496ft 17kts
09-Oct-18 15:48 35.977269 -115.137099 75 2496ft 6kts
09-Oct-18 15:49 35.979990 -115.136344 358 2496ft 25kts
09-Oct-18 15:50 35.980767 -115.136141 58 2496ft 0kts
09-Oct-18 15:51 35.980767 -115.136141 58 2496ft 0kts
09-Oct-18 15:52 35.980767 -115.136141 58 2496ft 0kts
09-Oct-18 15:53 35.977018 -115.135330 178 2528ft 62kts
09-Oct-18 15:54 35.963221 -115.134346 173 3150ft 70kts
09-Oct-18 15:55 35.948183 -115.134072 175 3797ft 69kts
09-Oct-18 15:56 35.933197 -115.133295 178 4460ft 72kts
09-Oct-18 15:57 35.916847 -115.132178 176 4991ft 84kts
09-Oct-18 15:58 35.902253 -115.120299 100 5354ft 93kts
09-Oct-18 15:59 35.906499 -115.095415 78 5669ft 105kts
09-Oct-18 16:00 35.915984 -115.071755 61 5845ft 124kts
09-Oct-18 16:01 35.929286 -115.046375 50 5625ft 148kts
09-Oct-18 16:02 35.935893 -115.018007 94 5703ft 122kts
09-Oct-18 16:03 35.933660 -114.992167 112 5380ft 95kts
09-Oct-18 16:04 35.928192 -114.967743 115 4566ft 110kts
09-Oct-18 16:05 35.923323 -114.942774 118 3934ft 96kts
09-Oct-18 16:06 35.916293 -114.920185 115 3325ft 97kts
09-Oct-18 16:07 35.920565 -114.896755 53 3134ft 115kts
09-Oct-18 16:08 35.938188 -114.881105 43 3168ft 117kts
09-Oct-18 16:09 35.957194 -114.879261 346 3109ft 107kts
09-Oct-18 16:10 35.967580 -114.870201 133 2739ft 78kts
09-Oct-18 16:11 35.957525 -114.864596 168 2332ft 53kts
09-Oct-18 16:12 35.948680 -114.861793 165 2233ft 64kts
09-Oct-18 16:13 35.938254 -114.851955 112 2981ft 77kts
09-Oct-18 16:14 35.933623 -114.834608 136 3609ft 71kts
09-Oct-18 16:15 35.925189 -114.820299 138 4261ft 68kts
09-Oct-18 16:16 35.916257 -114.807783 141 4845ft 68kts
09-Oct-18 16:17 35.905981 -114.797773 141 5324ft 74kts
09-Oct-18 16:18 35.902507 -114.780532 100 5870ft 81kts
09-Oct-18 16:19 35.900695 -114.761111 109 6318ft 84kts
09-Oct-18 16:20 35.897957 -114.741756 110 6771ft 82kts
09-Oct-18 16:21 35.902711 -114.719749 63 6610ft 118kts
09-Oct-18 16:22 35.921015 -114.705255 3 6498ft 128kts
09-Oct-18 16:23 35.944596 -114.704410 4 6398ft 122kts
09-Oct-18 16:24 35.965519 -114.705024 23 6505ft 113kts
09-Oct-18 16:25 35.984752 -114.706131 299 6480ft 111kts
09-Oct-18 16:26 35.987732 -114.727280 265 6425ft 106kts
09-Oct-18 16:27 35.990095 -114.750209 263 6330ft 113kts
09-Oct-18 16:28 35.992008 -114.774724 267 6109ft 119kts
09-Oct-18 16:29 35.993487 -114.798698 259 6055ft 104kts
09-Oct-18 16:30 35.994599 -114.821800 259 6067ft 105kts
09-Oct-18 16:31 35.995134 -114.844864 262 6126ft 107kts
09-Oct-18 16:32 35.994640 -114.868835 250 6060ft 110kts
09-Oct-18 16:33 35.992482 -114.894588 253 5852ft 115kts
09-Oct-18 16:34 35.990137 -114.919448 250 5742ft 105kts
09-Oct-18 16:35 35.987491 -114.943574 256 5701ft 106kts
09-Oct-18 16:36 35.985078 -114.968181 254 5724ft 104kts
09-Oct-18 16:37 35.982133 -114.992859 246 5713ft 105kts
09-Oct-18 16:38 35.978069 -115.017569 254 5702ft 108kts
09-Oct-18 16:39 35.975612 -115.043482 252 5753ft 101kts
09-Oct-18 16:40 35.973338 -115.070330 253 5286ft 116kts
09-Oct-18 16:41 35.970262 -115.097282 252 4806ft 117kts
09-Oct-18 16:42 35.968399 -115.121047 253 4802ft 94kts
09-Oct-18 16:43 35.978077 -115.134148 24 4366ft 117kts
09-Oct-18 16:44 35.996901 -115.123113 29 3638ft 114kts
09-Oct-18 16:45 36.008767 -115.134383 227 3156ft 72kts
09-Oct-18 16:46 35.997389 -115.135320 175 2867ft 58kts
09-Oct-18 16:47 35.986513 -115.135341 177 2619ft 47kts
09-Oct-18 16:48 35.978417 -115.135353 180 2496ft 21kts

Navigation Log

Ident Type
1. KHND Airport
2. KHND Airport